Time;durP1;ratioP1;P1;durP2;ratioP2;P2;SDS_P1;SDS_P2;PMS_P1;PMS_P2;Temp;Humidity;BMP_temperature;BMP_pressure;BME280_temperature;BME280_humidity;BME280_pressure;Samples;Min_cycle;Max_cycle;Signal;HPM_P1;HPM_P2
2023/07/09 00:02:12;;;;;;;7.38;6.50;;;21.10;94.70;;;;;;5069881;28;20045;-48
2023/07/09 00:04:38;;;;;;;7.45;6.45;;;21.10;94.80;;;;;;5071365;28;20054;-48
2023/07/09 00:07:03;;;;;;;;;;;21.20;94.80;;;;;;5072046;28;20029;-48
2023/07/09 00:09:29;;;;;;;12.07;6.45;;;21.10;95.00;;;;;;5071585;28;19943;-48
2023/07/09 00:11:55;;;;;;;9.50;7.15;;;21.10;94.90;;;;;;5071500;28;20074;-48
2023/07/09 00:14:21;;;;;;;;;;;21.20;95.10;;;;;;5071298;28;20115;-51
2023/07/09 00:16:50;;;;;;;10.02;7.55;;;21.20;95.10;;;;;;5071124;28;19923;-51
2023/07/09 00:19:23;;;;;;;9.07;6.10;;;21.10;94.90;;;;;;5071528;28;20040;-48
2023/07/09 00:21:52;;;;;;;38.85;7.70;;;21.10;95.10;;;;;;5069691;28;20036;-48
2023/07/09 00:24:19;;;;;;;9.90;6.28;;;21.10;94.90;;;;;;5070813;28;20048;-48
2023/07/09 00:26:48;;;;;;;8.65;7.07;;;21.10;94.60;;;;;;5070902;28;20480;-47
2023/07/09 00:29:13;;;;;;;13.00;6.65;;;21.20;94.30;;;;;;5070509;28;20156;-48
2023/07/09 00:31:40;;;;;;;;;;;21.30;94.30;;;;;;5071654;28;20131;-49
2023/07/09 00:34:08;;;;;;;8.50;6.15;;;21.30;94.20;;;;;;5070811;28;19923;-50
2023/07/09 00:36:34;;;;;;;8.82;6.45;;;21.30;94.20;;;;;;5070661;28;20234;-48
2023/07/09 00:39:04;;;;;;;;;;;21.30;94.50;;;;;;5071383;28;20113;-48
2023/07/09 00:41:35;;;;;;;8.10;6.40;;;21.20;94.50;;;;;;5070380;28;19924;-48
2023/07/09 00:44:28;;;;;;;10.52;6.65;;;21.20;94.80;;;;;;5070762;28;20131;-50
2023/07/09 00:47:03;;;;;;;15.05;6.78;;;21.20;95.10;;;;;;5070639;28;20039;-48
2023/07/09 00:49:32;;;;;;;14.48;8.15;;;21.10;94.90;;;;;;5070458;28;20044;-48
2023/07/09 00:52:03;;;;;;;12.73;7.10;;;21.00;94.90;;;;;;5070181;28;20058;-49
2023/07/09 00:54:36;;;;;;;7.45;6.63;;;21.00;94.90;;;;;;5070266;28;20047;-51
2023/07/09 00:57:08;;;;;;;12.43;6.70;;;20.90;94.90;;;;;;5070748;28;20081;-48
2023/07/09 00:59:34;;;;;;;12.35;7.05;;;20.80;95.00;;;;;;5070535;28;20524;-48
2023/07/09 01:02:00;;;;;;;;;;;20.80;95.10;;;;;;5070314;28;20072;-49
2023/07/09 01:04:27;;;;;;;11.15;6.10;;;20.80;95.20;;;;;;5070252;28;20003;-52
2023/07/09 01:06:54;;;;;;;9.73;7.07;;;20.80;94.90;;;;;;5070497;28;20044;-49
2023/07/09 01:09:22;;;;;;;10.45;7.18;;;20.80;95.00;;;;;;5070298;28;20052;-49
2023/07/09 01:11:47;;;;;;;15.45;7.18;;;20.70;95.30;;;;;;5070386;28;20032;-48
2023/07/09 01:14:18;;;;;;;;;;;20.70;95.30;;;;;;5070772;28;20036;-49
2023/07/09 01:16:49;;;;;;;9.70;7.18;;;20.70;95.20;;;;;;5070407;28;19916;-50
2023/07/09 01:19:16;;;;;;;9.35;7.15;;;20.60;95.20;;;;;;5069924;28;20036;-48
2023/07/09 01:21:42;;;;;;;6.03;5.43;;;20.60;95.40;;;;;;5070208;28;20041;-48
2023/07/09 01:24:36;;;;;;;10.70;6.70;;;20.60;95.20;;;;;;5069964;28;20068;-51
2023/07/09 01:27:02;;;;;;;10.95;6.95;;;20.70;95.10;;;;;;5069758;28;20184;-48
2023/07/09 01:29:34;;;;;;;9.55;6.55;;;20.70;94.90;;;;;;5069218;28;20121;-50
2023/07/09 01:31:59;;;;;;;8.10;6.43;;;20.70;95.10;;;;;;5069180;28;20111;-48
2023/07/09 01:34:25;;;;;;;;;;;20.70;95.10;;;;;;5070164;28;20607;-49
2023/07/09 01:36:51;;;;;;;13.93;6.57;;;20.70;95.30;;;;;;5069951;28;19916;-48
2023/07/09 01:39:17;;;;;;;;;;;20.70;95.00;;;;;;5070425;28;20029;-48
2023/07/09 01:41:42;;;;;;;8.90;6.40;;;20.60;95.40;;;;;;5069796;28;19923;-48
2023/07/09 01:44:08;;;;;;;;;;;20.50;95.20;;;;;;5068365;28;20036;-51
2023/07/09 01:46:34;;;;;;;9.35;6.72;;;20.40;95.70;;;;;;5069436;28;19920;-51
2023/07/09 01:49:00;;;;;;;9.60;6.95;;;20.30;95.50;;;;;;5085246;28;20115;-51
2023/07/09 01:51:28;;;;;;;;;;;20.30;95.60;;;;;;5070163;28;20159;-48
2023/07/09 01:53:53;;;;;;;12.52;7.45;;;20.30;95.50;;;;;;5069670;28;20407;-48
2023/07/09 01:56:19;;;;;;;;;;;20.30;95.30;;;;;;5070084;28;20060;-49
2023/07/09 01:58:44;;;;;;;8.70;6.82;;;20.30;95.40;;;;;;5061101;28;20002;-51
2023/07/09 02:01:10;;;;;;;;;;;20.30;95.40;;;;;;5070510;28;20063;-48
2023/07/09 02:03:36;;;;;;;12.13;7.25;;;20.40;95.80;;;;;;5069986;28;19920;-48
2023/07/09 02:06:09;;;;;;;;;;;20.30;95.50;;;;;;5070205;28;20043;-48
2023/07/09 02:08:35;;;;;;;11.88;7.53;;;20.40;95.50;;;;;;5069701;28;19983;-48
2023/07/09 02:11:01;;;;;;;8.82;6.32;;;20.20;95.50;;;;;;5069338;28;20406;-51
2023/07/09 02:13:26;;;;;;;;;;;20.10;95.80;;;;;;5069758;28;20040;-50
2023/07/09 02:15:52;;;;;;;9.52;7.32;;;19.90;96.00;;;;;;5061047;28;19920;-48
2023/07/09 02:18:17;;;;;;;;;;;19.90;96.00;;;;;;5070103;28;20041;-48
2023/07/09 02:20:46;;;;;;;11.90;8.02;;;19.90;96.20;;;;;;5069585;28;20395;-49
2023/07/09 02:23:12;;;;;;;8.40;7.03;;;19.80;96.30;;;;;;5069601;28;20086;-51
2023/07/09 02:25:37;;;;;;;8.82;7.55;;;19.70;96.30;;;;;;5068651;28;20052;-49
2023/07/09 02:28:03;;;;;;;;;;;19.70;96.30;;;;;;5068625;28;20047;-53
2023/07/09 02:30:28;;;;;;;10.40;7.07;;;19.80;96.40;;;;;;5068808;28;19963;-48
2023/07/09 02:32:54;;;;;;;;;;;19.80;96.30;;;;;;5069895;28;20033;-50
2023/07/09 02:35:20;;;;;;;10.95;7.43;;;19.80;96.10;;;;;;5068908;28;19928;-48
2023/07/09 02:37:46;;;;;;;9.15;7.07;;;19.90;95.90;;;;;;5068825;28;20039;-48
2023/07/09 02:40:12;;;;;;;;;;;19.90;95.80;;;;;;5069645;28;20368;-48
2023/07/09 02:42:37;;;;;;;14.45;8.10;;;20.00;95.70;;;;;;5069225;28;19920;-48
2023/07/09 02:45:04;;;;;;;;;;;20.10;95.60;;;;;;5072789;28;20029;-50
2023/07/09 02:47:29;;;;;;;10.52;7.38;;;20.10;95.60;;;;;;5071316;28;19999;-51
2023/07/09 02:49:55;;;;;;;;;;;20.10;95.50;;;;;;5073098;28;20115;-51
2023/07/09 02:52:20;;;;;;;9.75;7.97;;;20.10;95.50;;;;;;5072628;28;19942;-48
2023/07/09 02:54:46;;;;;;;;;;;20.20;95.40;;;;;;5072567;28;20032;-49
2023/07/09 02:57:11;;;;;;;12.10;8.85;;;20.20;95.80;;;;;;5072436;28;19928;-53
2023/07/09 02:59:37;;;;;;;;;;;20.20;95.40;;;;;;5073494;28;20048;-51
2023/07/09 03:02:03;;;;;;;8.93;7.28;;;20.20;95.50;;;;;;5072881;28;19974;-48
2023/07/09 03:04:31;;;;;;;12.00;7.45;;;20.10;95.40;;;;;;5072607;28;20469;-48
2023/07/09 03:06:56;;;;;;;11.27;7.80;;;20.10;95.40;;;;;;5073007;28;20036;-48
2023/07/09 03:09:22;;;;;;;;;;;20.10;95.50;;;;;;5073139;28;20385;-53
2023/07/09 03:11:48;;;;;;;10.80;8.00;;;20.10;95.70;;;;;;5072389;28;19947;-51
2023/07/09 03:14:14;;;;;;;;;;;20.00;95.60;;;;;;5073011;28;20044;-49
2023/07/09 03:16:39;;;;;;;9.82;7.97;;;20.00;96.00;;;;;;5072264;28;20165;-48
2023/07/09 03:19:05;;;;;;;11.88;8.40;;;20.00;95.70;;;;;;5072396;28;20044;-48
2023/07/09 03:21:31;;;;;;;;;;;20.00;95.70;;;;;;5072837;28;20028;-48
2023/07/09 03:23:57;;;;;;;9.65;7.35;;;20.00;95.80;;;;;;5072384;28;19923;-48
2023/07/09 03:26:25;;;;;;;;;;;20.00;95.70;;;;;;5072354;28;20036;-53
2023/07/09 03:28:52;;;;;;;7.60;6.78;;;19.90;96.00;;;;;;5072174;28;19917;-49
2023/07/09 03:31:19;;;;;;;8.48;7.45;;;19.80;95.90;;;;;;5072082;28;20072;-51
2023/07/09 03:33:47;;;;;;;8.18;7.28;;;19.80;96.20;;;;;;5071988;28;20146;-48
2023/07/09 03:36:13;;;;;;;10.10;7.95;;;19.70;96.40;;;;;;5070584;28;20040;-48
2023/07/09 03:38:38;;;;;;;10.50;8.40;;;19.60;96.50;;;;;;5071367;28;20040;-49
2023/07/09 03:41:05;;;;;;;;;;;19.50;96.60;;;;;;5072643;28;20482;-50
2023/07/09 03:43:31;;;;;;;10.27;7.82;;;19.50;97.00;;;;;;5072084;28;19952;-50
2023/07/09 03:45:57;;;;;;;;;;;19.40;96.90;;;;;;5071878;28;20505;-49
2023/07/09 03:48:23;;;;;;;12.60;8.20;;;19.50;96.90;;;;;;5072307;28;19916;-48
2023/07/09 03:50:48;;;;;;;;;;;19.50;96.70;;;;;;5072327;28;20451;-51
2023/07/09 03:53:15;;;;;;;12.10;8.65;;;19.60;96.80;;;;;;5071467;28;20014;-51
2023/07/09 03:55:41;;;;;;;13.40;8.50;;;19.60;96.60;;;;;;5070701;28;20123;-48
2023/07/09 03:58:07;;;;;;;14.80;7.45;;;19.70;96.60;;;;;;5071878;28;20107;-50
2023/07/09 04:00:33;;;;;;;;;;;19.70;96.60;;;;;;5072107;28;20047;-54
2023/07/09 04:02:59;;;;;;;13.80;7.93;;;19.70;96.70;;;;;;5071828;28;19921;-48
2023/07/09 04:05:26;;;;;;;9.65;8.27;;;19.80;96.60;;;;;;5071024;28;20405;-51
2023/07/09 04:07:52;;;;;;;10.13;8.55;;;19.80;96.50;;;;;;5069673;28;20051;-48
2023/07/09 04:10:18;;;;;;;12.95;8.90;;;19.80;96.60;;;;;;5071850;28;20049;-48
2023/07/09 04:12:44;;;;;;;11.43;8.27;;;19.80;96.60;;;;;;5071485;28;20093;-49
2023/07/09 04:15:12;;;;;;;;;;;19.80;96.50;;;;;;5071705;28;20033;-48
2023/07/09 04:17:38;;;;;;;9.35;8.38;;;19.90;96.60;;;;;;5071125;28;19920;-48
2023/07/09 04:20:07;;;;;;;14.45;8.82;;;19.90;96.50;;;;;;5071340;28;20043;-50
2023/07/09 04:22:34;;;;;;;11.48;8.90;;;19.90;96.60;;;;;;5069704;28;20059;-51
2023/07/09 04:25:00;;;;;;;11.57;8.38;;;20.00;96.70;;;;;;5070752;28;20397;-50
2023/07/09 04:27:28;;;;;;;9.73;8.25;;;20.00;96.80;;;;;;5071108;28;20046;-48
2023/07/09 04:29:54;;;;;;;13.05;7.88;;;20.00;96.90;;;;;;5071039;28;20119;-50
2023/07/09 04:32:20;;;;;;;9.85;8.43;;;20.00;97.00;;;;;;5071105;28;20170;-48
2023/07/09 04:34:46;;;;;;;10.45;8.45;;;20.10;97.00;;;;;;5070801;28;20060;-52
2023/07/09 04:37:12;;;;;;;12.70;9.13;;;20.10;97.00;;;;;;5071049;28;20851;-47
2023/07/09 04:39:39;;;;;;;10.95;9.23;;;20.20;97.00;;;;;;5070901;28;20040;-49
2023/07/09 04:42:12;;;;;;;24.48;8.88;;;20.20;97.00;;;;;;5086518;28;20048;-51
2023/07/09 04:44:37;;;;;;;12.15;8.65;;;20.30;97.20;;;;;;5070821;28;20045;-50
2023/07/09 04:47:03;;;;;;;;;;;20.30;97.10;;;;;;5071438;28;20029;-50
2023/07/09 04:49:28;;;;;;;10.63;8.68;;;20.40;97.50;;;;;;5070116;28;20381;-48
2023/07/09 04:51:56;;;;;;;;;;;20.40;97.40;;;;;;5071379;28;20067;-48
2023/07/09 04:54:25;;;;;;;9.93;8.65;;;20.50;97.90;;;;;;5070662;28;19924;-52
2023/07/09 04:56:51;;;;;;;12.30;8.88;;;20.50;97.80;;;;;;5070742;28;20029;-50
2023/07/09 04:59:16;;;;;;;;;;;20.60;97.80;;;;;;5071105;28;20036;-47
2023/07/09 05:01:42;;;;;;;18.98;8.85;;;20.60;98.20;;;;;;5070034;28;19916;-49
2023/07/09 05:04:08;;;;;;;;;;;20.70;97.90;;;;;;5070140;28;20036;-51
2023/07/09 05:06:34;;;;;;;11.73;9.38;;;20.80;98.50;;;;;;5069788;28;19916;-51
2023/07/09 05:09:00;;;;;;;11.15;9.25;;;20.80;98.50;;;;;;5070378;28;20041;-49
2023/07/09 05:11:25;;;;;;;;;;;20.90;99.00;;;;;;5070975;28;20444;-48
2023/07/09 05:13:51;;;;;;;10.93;9.70;;;20.90;99.70;;;;;;5070069;28;19917;-51
2023/07/09 05:16:16;;;;;;;;;;;21.00;99.50;;;;;;5070537;28;20063;-51
2023/07/09 05:18:42;;;;;;;13.93;9.60;;;21.00;99.90;;;;;;5069603;28;19959;-49
2023/07/09 05:21:08;;;;;;;;;;;21.20;99.70;;;;;;5070553;28;20119;-48
2023/07/09 05:23:33;;;;;;;18.08;9.05;;;21.30;99.90;;;;;;5070160;28;20007;-48
2023/07/09 05:26:00;;;;;;;;;;;21.40;99.60;;;;;;5070224;28;20559;-49
2023/07/09 05:28:25;;;;;;;12.20;9.48;;;21.50;99.90;;;;;;5069889;28;19942;-50
2023/07/09 05:30:51;;;;;;;;;;;21.70;99.70;;;;;;5070439;28;20120;-55
2023/07/09 05:33:18;;;;;;;16.95;10.45;;;21.80;99.50;;;;;;5069711;28;20152;-48
2023/07/09 05:35:44;;;;;;;13.73;9.63;;;21.90;99.50;;;;;;5069584;28;20509;-49
2023/07/09 05:38:09;;;;;;;;;;;22.00;99.30;;;;;;5070841;28;20389;-50
2023/07/09 05:40:35;;;;;;;13.68;9.00;;;22.10;99.50;;;;;;5069870;28;19923;-49
2023/07/09 05:43:00;;;;;;;11.45;10.32;;;22.20;99.30;;;;;;5069958;28;20036;-49
2023/07/09 05:45:26;;;;;;;11.00;9.15;;;22.20;99.50;;;;;;5069926;28;20507;-51
2023/07/09 05:47:52;;;;;;;;;;;22.30;99.60;;;;;;5069896;28;20048;-49
2023/07/09 05:50:17;;;;;;;13.43;9.60;;;22.40;99.90;;;;;;5070166;28;20015;-48
2023/07/09 05:52:43;;;;;;;13.00;8.98;;;22.40;99.90;;;;;;5070369;28;20397;-49
2023/07/09 05:55:08;;;;;;;10.07;8.70;;;22.40;99.90;;;;;;5069572;28;20039;-51
2023/07/09 05:57:34;;;;;;;;;;;22.50;99.90;;;;;;5070168;28;20386;-48
2023/07/09 06:00:00;;;;;;;12.18;9.30;;;22.50;99.90;;;;;;5069768;28;19991;-48
2023/07/09 06:02:25;;;;;;;;;;;22.50;99.90;;;;;;5070276;28;20033;-48
2023/07/09 06:04:51;;;;;;;13.40;9.90;;;22.50;99.90;;;;;;5061238;28;19946;-49
2023/07/09 06:07:18;;;;;;;;;;;22.60;99.90;;;;;;5070031;28;20546;-51
2023/07/09 06:09:45;;;;;;;10.45;8.55;;;22.70;99.90;;;;;;5068792;28;20385;-49
2023/07/09 06:12:11;;;;;;;11.57;9.60;;;22.80;99.90;;;;;;5069218;28;20104;-48
2023/07/09 06:14:37;;;;;;;;;;;22.80;99.90;;;;;;5069328;28;20393;-49
2023/07/09 06:17:03;;;;;;;16.80;8.65;;;22.90;99.90;;;;;;5068731;28;19916;-51
2023/07/09 06:19:28;;;;;;;10.50;8.13;;;23.00;99.50;;;;;;5065757;28;20044;-48
2023/07/09 06:21:55;;;;;;;14.05;8.40;;;23.10;98.90;;;;;;5061991;28;20588;-49
2023/07/09 06:24:21;;;;;;;12.98;8.93;;;23.10;98.90;;;;;;5070983;28;20094;-49
2023/07/09 06:26:47;;;;;;;15.15;8.98;;;23.20;98.60;;;;;;5059847;28;20040;-51
2023/07/09 06:29:13;;;;;;;41.78;10.80;;;23.40;98.50;;;;;;5056457;28;20551;-51
2023/07/09 06:31:40;;;;;;;11.75;8.73;;;23.40;98.60;;;;;;5067838;28;20048;-51
2023/07/09 06:34:07;;;;;;;9.68;7.75;;;23.50;98.30;;;;;;5063581;28;20093;-49
2023/07/09 06:36:32;;;;;;;9.68;7.55;;;23.60;98.20;;;;;;5071077;28;20033;-48
2023/07/09 06:38:58;;;;;;;12.98;7.80;;;23.70;98.20;;;;;;5067531;28;20081;-48
2023/07/09 06:41:24;;;;;;;11.48;7.18;;;23.80;97.90;;;;;;5073151;28;20113;-48
2023/07/09 06:43:50;;;;;;;15.50;8.95;;;24.00;98.00;;;;;;5071200;28;20037;-49
2023/07/09 06:46:18;;;;;;;12.70;7.53;;;24.10;97.90;;;;;;5071345;28;20036;-49
2023/07/09 06:48:44;;;;;;;10.35;7.88;;;24.20;98.10;;;;;;5072808;28;20032;-49
2023/07/09 06:51:10;;;;;;;15.80;8.13;;;24.40;97.50;;;;;;5073045;28;20071;-49
2023/07/09 06:53:36;;;;;;;16.02;6.90;;;24.50;97.60;;;;;;5071107;28;20460;-49
2023/07/09 06:56:02;;;;;;;17.23;7.80;;;24.60;97.40;;;;;;5072507;28;20525;-49
2023/07/09 06:58:31;;;;;;;9.35;7.80;;;24.70;97.00;;;;;;5072685;28;20040;-51
2023/07/09 07:00:57;;;;;;;10.73;7.03;;;24.80;97.10;;;;;;5072842;28;20040;-48
2023/07/09 07:03:24;;;;;;;11.75;6.70;;;24.90;96.90;;;;;;5072926;28;20044;-49
2023/07/09 07:05:53;;;;;;;10.07;7.38;;;25.00;97.00;;;;;;5072473;28;20094;-50
2023/07/09 07:08:20;;;;;;;10.10;7.35;;;25.00;97.00;;;;;;5072759;28;20045;-49
2023/07/09 07:10:47;;;;;;;13.90;8.00;;;25.10;97.00;;;;;;5072584;28;20432;-49
2023/07/09 07:13:14;;;;;;;11.85;7.95;;;25.20;96.80;;;;;;5072196;28;20036;-49
2023/07/09 07:15:40;;;;;;;13.52;7.85;;;25.20;96.60;;;;;;5070665;28;20123;-49
2023/07/09 07:18:06;;;;;;;10.73;8.15;;;25.30;96.70;;;;;;5071688;28;20036;-51
2023/07/09 07:20:33;;;;;;;9.63;8.35;;;25.40;96.70;;;;;;5071617;28;20150;-49
2023/07/09 07:22:59;;;;;;;8.38;7.55;;;25.50;97.10;;;;;;5070514;28;20045;-48
2023/07/09 07:25:24;;;;;;;12.35;7.85;;;25.70;96.90;;;;;;5071687;28;20051;-49
2023/07/09 07:27:50;;;;;;;11.45;7.22;;;25.80;96.50;;;;;;5071698;28;20036;-49
2023/07/09 07:30:16;;;;;;;11.23;7.88;;;25.90;96.30;;;;;;5071468;28;20059;-49
2023/07/09 07:32:45;;;;;;;14.60;7.75;;;25.90;96.10;;;;;;5071815;28;20517;-49
2023/07/09 07:35:10;;;;;;;8.60;6.90;;;26.00;96.10;;;;;;5071629;28;20075;-49
2023/07/09 07:37:36;;;;;;;14.45;8.25;;;26.10;96.20;;;;;;5072161;28;20068;-50
2023/07/09 07:40:04;;;;;;;11.18;7.70;;;26.20;96.10;;;;;;5072461;28;20041;-49
2023/07/09 07:42:30;;;;;;;12.05;8.85;;;26.30;96.10;;;;;;5071375;28;20252;-48
2023/07/09 07:44:55;;;;;;;11.70;7.88;;;26.40;96.20;;;;;;5071931;28;20190;-48
2023/07/09 07:47:21;;;;;;;15.27;7.53;;;26.50;96.20;;;;;;5070999;28;20044;-49
2023/07/09 07:49:47;;;;;;;11.40;7.30;;;26.60;96.20;;;;;;5072030;28;20044;-49
2023/07/09 07:52:13;;;;;;;10.07;7.75;;;26.70;95.90;;;;;;5071372;28;20036;-51
2023/07/09 07:54:39;;;;;;;10.95;7.28;;;26.80;95.70;;;;;;5070462;28;20501;-51
2023/07/09 07:57:05;;;;;;;10.00;7.70;;;26.90;95.60;;;;;;5070270;28;20042;-52
2023/07/09 07:59:32;;;;;;;10.00;7.60;;;27.00;95.60;;;;;;5071081;28;20068;-49
2023/07/09 08:01:58;;;;;;;10.48;7.38;;;27.20;95.90;;;;;;5067670;28;20036;-49
2023/07/09 08:04:24;;;;;;;10.50;7.30;;;27.30;95.70;;;;;;5071368;28;20119;-48
2023/07/09 08:06:50;;;;;;;7.18;6.50;;;27.40;95.80;;;;;;5071120;28;20067;-50
2023/07/09 08:09:16;;;;;;;10.75;7.60;;;27.50;95.60;;;;;;5071441;28;20075;-51
2023/07/09 08:11:42;;;;;;;9.55;7.07;;;27.60;95.20;;;;;;5070714;28;20052;-52
2023/07/09 08:14:07;;;;;;;10.63;6.45;;;27.60;95.10;;;;;;5071012;28;20039;-49
2023/07/09 08:16:33;;;;;;;8.25;6.47;;;27.70;94.60;;;;;;5070848;28;20498;-50
2023/07/09 08:18:58;;;;;;;7.57;6.38;;;27.80;94.30;;;;;;5071032;28;20068;-48
2023/07/09 08:21:24;;;;;;;10.52;6.40;;;27.80;94.40;;;;;;5071732;28;20037;-49
2023/07/09 08:23:49;;;;;;;14.15;6.72;;;27.90;94.30;;;;;;5070156;28;20369;-48
2023/07/09 08:26:15;;;;;;;12.60;7.05;;;28.00;94.40;;;;;;5065168;28;20048;-49
2023/07/09 08:28:41;;;;;;;10.68;7.10;;;28.10;93.90;;;;;;5065820;28;20043;-53
2023/07/09 08:31:08;;;;;;;8.70;6.70;;;28.30;93.70;;;;;;5060752;28;20037;-50
2023/07/09 08:33:33;;;;;;;10.02;5.95;;;28.30;93.40;;;;;;5068209;28;20071;-49
2023/07/09 08:35:59;;;;;;;64.55;12.52;;;28.40;94.20;;;;;;5065177;28;20061;-52
2023/07/09 08:38:25;;;;;;;17.85;7.05;;;28.50;93.70;;;;;;5065508;28;20064;-50
2023/07/09 08:41:25;;;;;;;15.95;6.93;;;28.70;93.40;;;;;;5062636;28;20099;-50
2023/07/09 08:44:02;;;;;;;11.25;7.00;;;28.80;92.90;;;;;;5059925;28;20056;-49
2023/07/09 08:46:46;;;;;;;11.10;6.95;;;28.90;93.00;;;;;;5071137;28;20040;-50
2023/07/09 08:49:21;;;;;;;5.55;4.93;;;29.10;91.90;;;;;;5068497;28;20045;-49
2023/07/09 08:51:47;;;;;;;8.93;5.82;;;29.20;91.70;;;;;;5062712;28;20494;-49
2023/07/09 08:54:27;;;;;;;84.15;11.40;;;29.30;91.80;;;;;;5065610;28;20633;-51
2023/07/09 08:56:53;;;;;;;5.70;5.20;;;29.40;91.50;;;;;;5066733;28;20036;-53
2023/07/09 08:59:20;;;;;;;7.38;5.88;;;29.50;91.10;;;;;;5061392;28;20048;-52
2023/07/09 09:01:51;;;;;;;8.82;6.35;;;29.60;91.10;;;;;;5056420;28;20051;-52
2023/07/09 09:04:24;;;;;;;7.38;5.15;;;29.70;91.00;;;;;;5056295;28;20449;-54
2023/07/09 09:07:02;;;;;;;7.82;5.25;;;29.80;90.60;;;;;;5062444;28;20047;-54
2023/07/09 09:09:33;;;;;;;9.45;4.97;;;29.80;90.00;;;;;;5065460;28;20051;-53
2023/07/09 09:12:25;;;;;;;14.63;6.07;;;29.80;89.60;;;;;;5064713;28;20102;-55
2023/07/09 09:15:00;;;;;;;314.38;23.88;;;30.00;89.70;;;;;;5064508;28;20036;-53
2023/07/09 09:17:29;;;;;;;10.10;4.93;;;30.10;89.20;;;;;;5064867;28;20071;-53
2023/07/09 09:19:56;;;;;;;10.23;5.22;;;30.20;88.80;;;;;;5065196;28;20036;-51
2023/07/09 09:22:26;;;;;;;10.27;5.65;;;30.30;87.70;;;;;;5058516;28;20131;-53
2023/07/09 09:25:00;;;;;;;13.40;5.95;;;30.30;89.30;;;;;;5060946;28;20028;-56
2023/07/09 09:27:26;;;;;;;10.38;4.70;;;30.40;87.90;;;;;;5060982;28;20051;-55
2023/07/09 09:29:51;;;;;;;11.15;5.28;;;30.50;87.50;;;;;;5060311;28;20436;-51
2023/07/09 09:32:27;;;;;;;5.57;4.85;;;30.60;88.00;;;;;;5062641;28;20032;-51
2023/07/09 09:34:53;;;;;;;;;;;30.70;86.50;;;;;;5060319;28;20047;-52
2023/07/09 09:37:31;;;;;;;7.85;6.05;;;30.70;85.50;;;;;;5065875;28;19916;-52
2023/07/09 09:39:58;;;;;;;7.63;5.32;;;30.90;86.10;;;;;;5058751;28;20040;-53
2023/07/09 09:42:25;;;;;;;13.45;4.03;;;31.00;86.00;;;;;;5065623;28;20058;-56
2023/07/09 09:44:54;;;;;;;6.13;4.40;;;31.00;86.30;;;;;;5066574;28;20045;-51
2023/07/09 09:47:20;;;;;;;7.75;4.25;;;31.10;83.50;;;;;;5067103;28;20041;-55
2023/07/09 09:49:46;;;;;;;9.63;5.63;;;31.20;83.30;;;;;;5063078;28;20041;-52
2023/07/09 09:52:18;;;;;;;11.63;4.18;;;31.30;83.10;;;;;;5069502;28;20046;-51
2023/07/09 09:55:01;;;;;;;7.00;5.07;;;31.40;81.30;;;;;;5059239;28;20032;-53
2023/07/09 09:57:27;;;;;;;5.07;3.50;;;31.50;81.50;;;;;;5055720;28;20410;-52
2023/07/09 09:59:54;;;;;;;14.13;4.10;;;31.50;80.10;;;;;;5062133;28;20497;-52
2023/07/09 10:02:22;;;;;;;5.55;3.03;;;31.60;79.90;;;;;;5059991;28;20041;-51
2023/07/09 10:04:49;;;;;;;7.57;3.83;;;31.60;78.20;;;;;;5064229;28;20586;-52
2023/07/09 10:07:20;;;;;;;9.93;3.80;;;31.70;78.90;;;;;;5061811;28;20502;-51
2023/07/09 10:09:54;;;;;;;5.57;3.72;;;31.80;78.10;;;;;;5064104;28;20040;-52
2023/07/09 10:12:42;;;;;;;4.75;2.75;;;31.90;77.70;;;;;;5057328;28;20039;-54
2023/07/09 10:15:31;;;;;;;8.85;4.05;;;31.90;77.70;;;;;;5056433;28;20032;-51
2023/07/09 10:18:19;;;;;;;4.65;3.47;;;32.10;76.00;;;;;;5064681;28;20460;-54
2023/07/09 10:20:58;;;;;;;7.15;4.63;;;32.10;76.60;;;;;;5063166;28;20052;-51
2023/07/09 10:23:49;;;;;;;7.25;3.40;;;32.10;77.10;;;;;;5067599;28;20413;-51
2023/07/09 10:26:24;;;;;;;6.75;4.05;;;32.10;77.30;;;;;;5062187;28;20068;-53
2023/07/09 10:29:09;;;;;;;5.80;4.07;;;32.10;77.70;;;;;;5069671;28;20436;-54
2023/07/09 10:31:44;;;;;;;4.38;3.72;;;32.20;77.30;;;;;;5069056;28;20036;-51
2023/07/09 10:34:27;;;;;;;6.70;4.32;;;32.20;76.10;;;;;;5069660;28;20037;-52
2023/07/09 10:37:21;;;;;;;10.15;3.85;;;32.30;76.10;;;;;;5069738;28;20044;-55
2023/07/09 10:39:50;;;;;;;10.05;4.13;;;32.30;76.60;;;;;;5070236;28;20067;-53
2023/07/09 10:42:30;;;;;;;7.85;3.88;;;32.30;75.70;;;;;;5070593;28;20033;-52
2023/07/09 10:45:09;;;;;;;6.97;3.15;;;32.50;75.30;;;;;;5069192;28;20037;-55
2023/07/09 10:47:41;;;;;;;6.22;3.70;;;32.50;73.90;;;;;;5070523;28;20425;-54
2023/07/09 10:50:16;;;;;;;6.50;4.05;;;32.70;75.90;;;;;;5064833;28;20040;-51
2023/07/09 10:52:46;;;;;;;7.20;4.50;;;32.70;75.00;;;;;;5066918;28;20043;-56
2023/07/09 10:55:23;;;;;;;5.22;3.75;;;32.80;75.80;;;;;;5063729;28;20300;-53
2023/07/09 10:57:59;;;;;;;7.90;4.35;;;32.80;75.70;;;;;;5063081;28;20037;-53
2023/07/09 11:00:35;;;;;;;3.83;3.42;;;32.90;74.00;;;;;;5062379;28;20049;-51
2023/07/09 11:03:17;;;;;;;5.03;3.25;;;32.90;73.90;;;;;;5063355;28;20078;-52
2023/07/09 11:05:43;;;;;;;10.57;3.80;;;33.00;73.30;;;;;;5061273;28;20533;-54
2023/07/09 11:08:18;;;;;;;6.22;4.10;;;33.00;75.10;;;;;;5059365;28;20417;-52
2023/07/09 11:10:52;;;;;;;4.10;3.70;;;33.00;74.20;;;;;;5055199;28;20037;-56
2023/07/09 11:13:26;;;;;;;4.28;3.58;;;33.00;74.50;;;;;;5071710;28;20072;-55
2023/07/09 11:15:56;;;;;;;9.93;4.13;;;33.00;74.00;;;;;;5064096;28;20375;-56
2023/07/09 11:18:24;;;;;;;6.22;3.85;;;33.00;74.40;;;;;;5061976;28;20437;-55
2023/07/09 11:21:15;;;;;;;12.38;4.95;;;33.10;73.90;;;;;;5066601;28;20062;-51
2023/07/09 11:23:46;;;;;;;7.20;3.78;;;33.20;73.00;;;;;;5060289;28;20028;-54
2023/07/09 11:26:36;;;;;;;5.68;3.78;;;33.20;73.90;;;;;;5070190;28;20049;-55
2023/07/09 11:29:02;;;;;;;6.13;3.45;;;33.20;72.50;;;;;;5067399;28;20116;-54
2023/07/09 11:31:33;;;;;;;87.43;8.48;;;33.20;72.50;;;;;;5068979;28;20131;-53
2023/07/09 11:34:07;;;;;;;6.50;3.53;;;33.20;71.90;;;;;;5071505;28;20032;-52
2023/07/09 11:36:34;;;;;;;13.55;3.58;;;33.30;72.70;;;;;;5066178;28;20040;-52
2023/07/09 11:39:01;;;;;;;7.78;3.60;;;33.30;71.90;;;;;;5067809;28;20428;-51
2023/07/09 11:41:41;;;;;;;11.60;3.42;;;33.40;72.10;;;;;;5063455;28;20047;-51
2023/07/09 11:44:29;;;;;;;8.35;3.88;;;33.40;72.20;;;;;;5067034;28;20810;-56
2023/07/09 11:47:22;;;;;;;5.68;3.25;;;33.40;70.10;;;;;;5071100;28;20525;-52
2023/07/09 11:49:51;;;;;;;9.68;2.88;;;33.50;72.50;;;;;;5071718;28;20123;-52
2023/07/09 11:52:24;;;;;;;4.63;3.50;;;33.60;71.40;;;;;;5071659;28;20497;-56
2023/07/09 11:54:51;;;;;;;5.13;4.25;;;33.60;72.70;;;;;;5071792;28;20039;-55
2023/07/09 11:57:18;;;;;;;9.05;3.78;;;33.70;71.50;;;;;;5071527;28;20383;-57
2023/07/09 11:59:44;;;;;;;4.57;2.72;;;33.70;71.00;;;;;;5070610;28;20070;-57
2023/07/09 12:02:20;;;;;;;6.20;3.67;;;33.70;70.50;;;;;;5071378;28;20033;-56
2023/07/09 12:04:50;;;;;;;5.78;3.28;;;33.80;70.00;;;;;;5069173;28;20178;-56
2023/07/09 12:07:17;;;;;;;5.50;2.83;;;33.90;70.50;;;;;;5069781;28;20110;-56
2023/07/09 12:09:53;;;;;;;5.28;3.03;;;33.90;70.10;;;;;;5071845;28;20036;-57
2023/07/09 12:12:25;;;;;;;4.53;2.80;;;33.90;69.30;;;;;;5071617;28;20044;-56
2023/07/09 12:14:51;;;;;;;5.70;3.08;;;33.90;69.10;;;;;;5070227;28;20036;-55
2023/07/09 12:17:26;;;;;;;7.32;3.13;;;34.00;69.00;;;;;;5069651;28;20024;-56
2023/07/09 12:19:52;;;;;;;11.85;3.20;;;34.00;69.90;;;;;;5070438;28;20044;-55
2023/07/09 12:22:22;;;;;;;4.80;2.17;;;34.00;69.00;;;;;;5071652;28;20044;-56
2023/07/09 12:24:49;;;;;;;4.90;2.90;;;34.00;68.30;;;;;;5071460;28;20558;-56
2023/07/09 12:27:25;;;;;;;6.47;2.47;;;33.90;67.50;;;;;;5071343;28;20036;-56
2023/07/09 12:29:53;;;;;;;5.40;2.13;;;33.80;67.70;;;;;;5070958;28;20044;-56
2023/07/09 12:32:22;;;;;;;6.50;2.25;;;33.70;66.00;;;;;;5071548;28;20042;-53
2023/07/09 12:34:51;;;;;;;3.13;2.42;;;33.70;67.30;;;;;;5069900;28;20086;-54
2023/07/09 12:37:18;;;;;;;4.63;2.60;;;33.70;67.30;;;;;;5070865;28;20051;-56
2023/07/09 12:39:44;;;;;;;7.93;2.75;;;33.60;67.90;;;;;;5070546;28;20389;-57
2023/07/09 12:42:16;;;;;;;7.47;2.70;;;33.60;68.50;;;;;;5067133;28;20036;-56
2023/07/09 12:44:42;;;;;;;4.78;2.05;;;33.60;67.90;;;;;;5068649;28;20040;-56
2023/07/09 12:47:13;;;;;;;4.88;2.58;;;33.70;67.70;;;;;;5070464;28;20029;-56
2023/07/09 12:49:42;;;;;;;32.03;4.53;;;33.70;66.90;;;;;;5070546;28;20405;-54
2023/07/09 12:52:19;;;;;;;5.22;3.03;;;33.70;66.50;;;;;;5070560;28;20044;-56
2023/07/09 12:54:55;;;;;;;8.85;1.98;;;33.80;68.00;;;;;;5069159;28;20039;-56
2023/07/09 12:57:21;;;;;;;2.92;1.35;;;33.80;67.00;;;;;;5070617;28;20254;-56
2023/07/09 12:59:47;;;;;;;5.25;2.38;;;33.80;66.40;;;;;;5069367;28;20558;-56
2023/07/09 13:02:19;;;;;;;8.90;2.65;;;33.70;67.10;;;;;;5070309;28;20085;-52
2023/07/09 13:04:46;;;;;;;2.65;2.08;;;33.70;66.20;;;;;;5070186;28;20041;-56